sensor_id;sensor_type;location;lat;lon;timestamp;pressure;altitude;pressure_sealevel;temperature;humidity
20119;BME280;10220;42.716;23.306;2022-09-20T00:01:27;95355.78;;;11.47;100.00
20119;BME280;10220;42.716;23.306;2022-09-20T00:03:56;95363.34;;;11.49;100.00
20119;BME280;10220;42.716;23.306;2022-09-20T00:06:28;95336.03;;;11.33;100.00
20119;BME280;10220;42.716;23.306;2022-09-20T00:08:54;95323.94;;;11.02;100.00
20119;BME280;10220;42.716;23.306;2022-09-20T00:11:26;95374.94;;;11.46;100.00
20119;BME280;10220;42.716;23.306;2022-09-20T00:13:53;95372.38;;;11.20;100.00
20119;BME280;10220;42.716;23.306;2022-09-20T00:16:21;95377.38;;;11.22;100.00
20119;BME280;10220;42.716;23.306;2022-09-20T00:18:52;95341.47;;;11.06;100.00
20119;BME280;10220;42.716;23.306;2022-09-20T00:21:20;95372.38;;;11.27;100.00
20119;BME280;10220;42.716;23.306;2022-09-20T00:23:46;95328.94;;;10.84;100.00
20119;BME280;10220;42.716;23.306;2022-09-20T00:26:12;95383.97;;;11.05;100.00
20119;BME280;10220;42.716;23.306;2022-09-20T00:28:41;95357.84;;;11.00;100.00
20119;BME280;10220;42.716;23.306;2022-09-20T00:31:09;95373.97;;;11.15;100.00
20119;BME280;10220;42.716;23.306;2022-09-20T00:33:35;95372.97;;;11.35;100.00
20119;BME280;10220;42.716;23.306;2022-09-20T00:36:19;95370.59;;;11.27;100.00
20119;BME280;10220;42.716;23.306;2022-09-20T00:38:45;95376.78;;;11.20;100.00
20119;BME280;10220;42.716;23.306;2022-09-20T00:41:10;95365.00;;;11.11;100.00
20119;BME280;10220;42.716;23.306;2022-09-20T00:43:44;95345.88;;;11.12;100.00
20119;BME280;10220;42.716;23.306;2022-09-20T00:46:27;95369.00;;;11.01;100.00
20119;BME280;10220;42.716;23.306;2022-09-20T00:49:20;95358.84;;;10.99;100.00
20119;BME280;10220;42.716;23.306;2022-09-20T00:51:51;95373.38;;;11.32;100.00
20119;BME280;10220;42.716;23.306;2022-09-20T00:54:20;95375.16;;;11.19;100.00
20119;BME280;10220;42.716;23.306;2022-09-20T00:56:47;95334.13;;;10.84;100.00
20119;BME280;10220;42.716;23.306;2022-09-20T00:59:22;95377.19;;;11.11;100.00
20119;BME280;10220;42.716;23.306;2022-09-20T01:01:55;95379.97;;;11.03;100.00
20119;BME280;10220;42.716;23.306;2022-09-20T01:04:24;95377.97;;;11.05;100.00
20119;BME280;10220;42.716;23.306;2022-09-20T01:06:53;95381.97;;;11.13;100.00
20119;BME280;10220;42.716;23.306;2022-09-20T01:09:21;95342.31;;;10.87;100.00
20119;BME280;10220;42.716;23.306;2022-09-20T01:11:47;95302.06;;;10.59;100.00
20119;BME280;10220;42.716;23.306;2022-09-20T01:14:14;95372.22;;;11.09;100.00
20119;BME280;10220;42.716;23.306;2022-09-20T01:16:41;95383.34;;;11.22;100.00
20119;BME280;10220;42.716;23.306;2022-09-20T01:19:19;95349.88;;;11.08;100.00
20119;BME280;10220;42.716;23.306;2022-09-20T01:21:50;95385.16;;;11.03;100.00
20119;BME280;10220;42.716;23.306;2022-09-20T01:24:32;95369.63;;;10.90;100.00
20119;BME280;10220;42.716;23.306;2022-09-20T01:29:56;95362.22;;;11.06;100.00
20119;BME280;10220;42.716;23.306;2022-09-20T01:35:16;95373.97;;;10.96;100.00
20119;BME280;10220;42.716;23.306;2022-09-20T01:40:57;95364.63;;;10.62;100.00
20119;BME280;10220;42.716;23.306;2022-09-20T01:46:30;95360.03;;;10.58;100.00
20119;BME280;10220;42.716;23.306;2022-09-20T01:54:24;95370.53;;;10.24;100.00
20119;BME280;10220;42.716;23.306;2022-09-20T02:02:08;95370.53;;;10.24;100.00
20119;BME280;10220;42.716;23.306;2022-09-20T02:13:28;95332.28;;;10.13;100.00
20119;BME280;10220;42.716;23.306;2022-09-20T02:27:01;95357.78;;;10.23;100.00
20119;BME280;10220;42.716;23.306;2022-09-20T02:32:04;95343.44;;;10.20;100.00
20119;BME280;10220;42.716;23.306;2022-09-20T02:43:16;95337.53;;;9.86;100.00
20119;BME280;10220;42.716;23.306;2022-09-20T02:48:35;95353.38;;;9.64;100.00
20119;BME280;10220;42.716;23.306;2022-09-20T02:51:11;95364.97;;;9.74;100.00
20119;BME280;10220;42.716;23.306;2022-09-20T02:54:10;95354.88;;;9.86;100.00
20119;BME280;10220;42.716;23.306;2022-09-20T02:56:54;95341.25;;;9.71;100.00
20119;BME280;10220;42.716;23.306;2022-09-20T03:02:21;95355.13;;;9.57;100.00
20119;BME280;10220;42.716;23.306;2022-09-20T03:05:03;95360.53;;;9.62;100.00
20119;BME280;10220;42.716;23.306;2022-09-20T03:10:39;95366.56;;;9.75;100.00
20119;BME280;10220;42.716;23.306;2022-09-20T03:18:52;95366.69;;;9.67;100.00
20119;BME280;10220;42.716;23.306;2022-09-20T03:27:01;95374.66;;;9.66;100.00
20119;BME280;10220;42.716;23.306;2022-09-20T03:29:56;95378.81;;;9.60;100.00
20119;BME280;10220;42.716;23.306;2022-09-20T03:38:09;95396.81;;;9.41;100.00
20119;BME280;10220;42.716;23.306;2022-09-20T03:46:40;95385.38;;;9.56;100.00
20119;BME280;10220;42.716;23.306;2022-09-20T04:03:59;95362.84;;;9.50;100.00
20119;BME280;10220;42.716;23.306;2022-09-20T04:11:52;95387.94;;;9.23;100.00
20119;BME280;10220;42.716;23.306;2022-09-20T04:14:40;95399.25;;;9.22;100.00
20119;BME280;10220;42.716;23.306;2022-09-20T04:17:21;95399.06;;;9.23;100.00
20119;BME280;10220;42.716;23.306;2022-09-20T04:22:20;95420.22;;;9.33;100.00
20119;BME280;10220;42.716;23.306;2022-09-20T04:24:56;95426.88;;;9.48;100.00
20119;BME280;10220;42.716;23.306;2022-09-20T04:27:44;95388.03;;;9.08;100.00
20119;BME280;10220;42.716;23.306;2022-09-20T04:30:22;95404.13;;;9.31;100.00
20119;BME280;10220;42.716;23.306;2022-09-20T04:33:00;95406.38;;;9.13;100.00
20119;BME280;10220;42.716;23.306;2022-09-20T04:36:09;95411.41;;;9.21;100.00
20119;BME280;10220;42.716;23.306;2022-09-20T04:42:16;95389.31;;;8.91;100.00
20119;BME280;10220;42.716;23.306;2022-09-20T04:45:06;95424.28;;;9.15;100.00
20119;BME280;10220;42.716;23.306;2022-09-20T04:58:46;95440.59;;;9.22;100.00
20119;BME280;10220;42.716;23.306;2022-09-20T05:23:37;95445.34;;;10.06;100.00
20119;BME280;10220;42.716;23.306;2022-09-20T05:26:15;95436.25;;;10.23;100.00
20119;BME280;10220;42.716;23.306;2022-09-20T05:28:57;95430.06;;;10.24;100.00
20119;BME280;10220;42.716;23.306;2022-09-20T05:31:41;95439.72;;;10.50;100.00
20119;BME280;10220;42.716;23.306;2022-09-20T05:40:34;95368.88;;;9.97;100.00
20119;BME280;10220;42.716;23.306;2022-09-20T05:43:10;95440.47;;;10.44;100.00
20119;BME280;10220;42.716;23.306;2022-09-20T05:46:02;95429.31;;;10.37;100.00
20119;BME280;10220;42.716;23.306;2022-09-20T05:49:15;95447.09;;;10.52;100.00
20119;BME280;10220;42.716;23.306;2022-09-20T05:51:41;95434.34;;;10.51;100.00
20119;BME280;10220;42.716;23.306;2022-09-20T06:14:00;95453.22;;;12.13;100.00
20119;BME280;10220;42.716;23.306;2022-09-20T06:22:03;95448.88;;;12.00;100.00
20119;BME280;10220;42.716;23.306;2022-09-20T06:24:36;95441.38;;;12.29;100.00
20119;BME280;10220;42.716;23.306;2022-09-20T06:27:08;95405.31;;;12.52;100.00
20119;BME280;10220;42.716;23.306;2022-09-20T06:29:38;95450.97;;;12.73;100.00
20119;BME280;10220;42.716;23.306;2022-09-20T06:32:04;95421.69;;;12.90;100.00
20119;BME280;10220;42.716;23.306;2022-09-20T06:34:30;95426.66;;;12.61;100.00
20119;BME280;10220;42.716;23.306;2022-09-20T06:40:26;95438.13;;;12.47;100.00
20119;BME280;10220;42.716;23.306;2022-09-20T06:43:14;95441.75;;;12.39;100.00
20119;BME280;10220;42.716;23.306;2022-09-20T06:45:40;95447.34;;;12.36;100.00
20119;BME280;10220;42.716;23.306;2022-09-20T06:48:07;95445.53;;;12.37;100.00
20119;BME280;10220;42.716;23.306;2022-09-20T06:50:35;95457.97;;;12.29;100.00
20119;BME280;10220;42.716;23.306;2022-09-20T06:53:01;95427.28;;;12.50;100.00
20119;BME280;10220;42.716;23.306;2022-09-20T06:55:29;95454.84;;;12.57;100.00
20119;BME280;10220;42.716;23.306;2022-09-20T06:57:59;95414.66;;;12.16;100.00
20119;BME280;10220;42.716;23.306;2022-09-20T07:00:24;95441.50;;;12.47;100.00
20119;BME280;10220;42.716;23.306;2022-09-20T07:02:50;95422.78;;;12.39;100.00
20119;BME280;10220;42.716;23.306;2022-09-20T07:05:16;95427.22;;;12.19;100.00
20119;BME280;10220;42.716;23.306;2022-09-20T07:07:45;95409.13;;;12.43;100.00
20119;BME280;10220;42.716;23.306;2022-09-20T07:10:12;95417.03;;;12.61;100.00
20119;BME280;10220;42.716;23.306;2022-09-20T07:12:38;95413.84;;;12.96;100.00
20119;BME280;10220;42.716;23.306;2022-09-20T07:15:04;95421.16;;;12.75;100.00
20119;BME280;10220;42.716;23.306;2022-09-20T07:17:30;95457.22;;;13.51;100.00
20119;BME280;10220;42.716;23.306;2022-09-20T07:19:56;95453.91;;;13.44;100.00
20119;BME280;10220;42.716;23.306;2022-09-20T07:22:21;95437.00;;;13.29;100.00
20119;BME280;10220;42.716;23.306;2022-09-20T07:24:47;95458.78;;;13.58;100.00
20119;BME280;10220;42.716;23.306;2022-09-20T07:27:12;95450.72;;;13.84;100.00
20119;BME280;10220;42.716;23.306;2022-09-20T07:29:38;95403.97;;;13.89;100.00
20119;BME280;10220;42.716;23.306;2022-09-20T07:32:05;95402.16;;;13.72;100.00
20119;BME280;10220;42.716;23.306;2022-09-20T07:34:30;95464.53;;;14.74;100.00
20119;BME280;10220;42.716;23.306;2022-09-20T07:36:56;95435.47;;;15.00;100.00
20119;BME280;10220;42.716;23.306;2022-09-20T07:39:24;95443.09;;;15.65;100.00
20119;BME280;10220;42.716;23.306;2022-09-20T07:41:49;95441.81;;;15.79;93.67
20119;BME280;10220;42.716;23.306;2022-09-20T07:44:16;95423.03;;;14.84;95.77
20119;BME280;10220;42.716;23.306;2022-09-20T07:46:52;95454.03;;;15.21;98.12
20119;BME280;10220;42.716;23.306;2022-09-20T07:49:19;95444.19;;;15.23;95.96
20119;BME280;10220;42.716;23.306;2022-09-20T07:51:45;95449.97;;;14.67;98.48
20119;BME280;10220;42.716;23.306;2022-09-20T07:54:11;95405.72;;;14.60;97.87
20119;BME280;10220;42.716;23.306;2022-09-20T07:56:36;95388.34;;;14.43;98.43
20119;BME280;10220;42.716;23.306;2022-09-20T07:59:02;95449.66;;;14.45;99.56
20119;BME280;10220;42.716;23.306;2022-09-20T08:01:27;95434.38;;;15.19;97.66
20119;BME280;10220;42.716;23.306;2022-09-20T08:03:53;95402.13;;;15.13;93.38
20119;BME280;10220;42.716;23.306;2022-09-20T08:06:19;95389.88;;;14.62;94.56
20119;BME280;10220;42.716;23.306;2022-09-20T08:08:46;95459.50;;;15.02;93.89
20119;BME280;10220;42.716;23.306;2022-09-20T08:11:17;95441.00;;;15.21;87.05
20119;BME280;10220;42.716;23.306;2022-09-20T08:13:48;95406.97;;;14.98;87.70
20119;BME280;10220;42.716;23.306;2022-09-20T08:16:14;95396.44;;;14.93;86.37
20119;BME280;10220;42.716;23.306;2022-09-20T08:18:57;95447.72;;;15.28;83.85
20119;BME280;10220;42.716;23.306;2022-09-20T08:21:27;95444.19;;;15.23;85.41
20119;BME280;10220;42.716;23.306;2022-09-20T08:23:56;95412.31;;;15.32;84.09
20119;BME280;10220;42.716;23.306;2022-09-20T08:26:23;95434.88;;;16.07;79.74
20119;BME280;10220;42.716;23.306;2022-09-20T08:28:54;95425.78;;;15.98;81.55
20119;BME280;10220;42.716;23.306;2022-09-20T08:31:21;95448.53;;;15.86;76.09
20119;BME280;10220;42.716;23.306;2022-09-20T08:33:49;95444.44;;;15.56;76.24
20119;BME280;10220;42.716;23.306;2022-09-20T08:36:17;95427.72;;;15.23;77.40
20119;BME280;10220;42.716;23.306;2022-09-20T08:38:43;95413.88;;;15.22;80.38
20119;BME280;10220;42.716;23.306;2022-09-20T08:41:34;95383.25;;;14.88;80.15
20119;BME280;10220;42.716;23.306;2022-09-20T08:46:31;95427.66;;;14.70;78.30
20119;BME280;10220;42.716;23.306;2022-09-20T08:49:03;95422.66;;;15.10;72.55
20119;BME280;10220;42.716;23.306;2022-09-20T08:51:33;95363.94;;;15.41;75.67
20119;BME280;10220;42.716;23.306;2022-09-20T08:54:00;95386.28;;;15.83;72.27
20119;BME280;10220;42.716;23.306;2022-09-20T08:56:31;95407.50;;;15.98;70.34
20119;BME280;10220;42.716;23.306;2022-09-20T08:58:59;95390.97;;;15.58;75.98
20119;BME280;10220;42.716;23.306;2022-09-20T09:01:26;95382.31;;;15.24;75.37
20119;BME280;10220;42.716;23.306;2022-09-20T09:04:16;95405.47;;;15.66;78.49
20119;BME280;10220;42.716;23.306;2022-09-20T09:06:43;95411.16;;;15.40;79.84
20119;BME280;10220;42.716;23.306;2022-09-20T09:09:39;95391.97;;;15.34;75.86
20119;BME280;10220;42.716;23.306;2022-09-20T09:12:23;95368.19;;;15.02;71.70
20119;BME280;10220;42.716;23.306;2022-09-20T09:14:50;95345.19;;;15.10;70.90
20119;BME280;10220;42.716;23.306;2022-09-20T09:17:27;95399.59;;;15.47;66.72
20119;BME280;10220;42.716;23.306;2022-09-20T09:19:58;95387.53;;;15.69;69.32
20119;BME280;10220;42.716;23.306;2022-09-20T09:27:34;95353.19;;;14.86;63.65
20119;BME280;10220;42.716;23.306;2022-09-20T09:30:36;95356.47;;;15.33;66.80
20119;BME280;10220;42.716;23.306;2022-09-20T09:36:15;95368.47;;;15.69;71.54
20119;BME280;10220;42.716;23.306;2022-09-20T09:38:44;95323.31;;;15.23;70.87
20119;BME280;10220;42.716;23.306;2022-09-20T09:41:28;95332.06;;;16.01;81.87
20119;BME280;10220;42.716;23.306;2022-09-20T09:44:25;95350.56;;;16.67;71.82
20119;BME280;10220;42.716;23.306;2022-09-20T09:46:52;95344.94;;;15.80;70.51
20119;BME280;10220;42.716;23.306;2022-09-20T09:49:24;95369.97;;;15.53;71.61
20119;BME280;10220;42.716;23.306;2022-09-20T09:52:16;95355.31;;;15.29;71.34
20119;BME280;10220;42.716;23.306;2022-09-20T09:54:53;95367.66;;;15.68;82.36
20119;BME280;10220;42.716;23.306;2022-09-20T09:57:38;95356.03;;;15.98;71.79
20119;BME280;10220;42.716;23.306;2022-09-20T10:00:11;95348.25;;;16.54;67.99
20119;BME280;10220;42.716;23.306;2022-09-20T10:22:31;95332.03;;;17.17;61.85
20119;BME280;10220;42.716;23.306;2022-09-20T10:25:16;95346.34;;;17.43;61.49
20119;BME280;10220;42.716;23.306;2022-09-20T10:38:41;95334.47;;;16.58;64.58
20119;BME280;10220;42.716;23.306;2022-09-20T10:44:40;95324.06;;;15.69;68.32
20119;BME280;10220;42.716;23.306;2022-09-20T10:47:14;95343.16;;;16.47;63.82
20119;BME280;10220;42.716;23.306;2022-09-20T10:50:12;95348.22;;;16.38;63.08
20119;BME280;10220;42.716;23.306;2022-09-20T10:55:41;95333.94;;;16.73;61.03
20119;BME280;10220;42.716;23.306;2022-09-20T11:07:10;95311.41;;;17.37;58.12
20119;BME280;10220;42.716;23.306;2022-09-20T11:09:50;95323.47;;;17.05;58.17
20119;BME280;10220;42.716;23.306;2022-09-20T11:12:35;95330.78;;;17.20;58.14
20119;BME280;10220;42.716;23.306;2022-09-20T11:15:14;95320.31;;;17.36;54.60
20119;BME280;10220;42.716;23.306;2022-09-20T11:17:58;95329.69;;;17.32;56.72
20119;BME280;10220;42.716;23.306;2022-09-20T11:20:31;95285.16;;;17.16;55.98
20119;BME280;10220;42.716;23.306;2022-09-20T11:23:04;95282.97;;;17.24;53.25
20119;BME280;10220;42.716;23.306;2022-09-20T11:25:55;95270.97;;;17.28;51.90
20119;BME280;10220;42.716;23.306;2022-09-20T11:28:31;95304.59;;;17.36;52.54
20119;BME280;10220;42.716;23.306;2022-09-20T11:33:45;95258.81;;;17.22;52.16
20119;BME280;10220;42.716;23.306;2022-09-20T11:36:22;95296.88;;;17.46;52.58
20119;BME280;10220;42.716;23.306;2022-09-20T11:38:53;95291.97;;;17.17;52.01
20119;BME280;10220;42.716;23.306;2022-09-20T11:43:50;95265.63;;;17.23;54.14
20119;BME280;10220;42.716;23.306;2022-09-20T11:46:30;95250.91;;;17.01;53.15
20119;BME280;10220;42.716;23.306;2022-09-20T11:49:04;95250.97;;;17.06;53.53
20119;BME280;10220;42.716;23.306;2022-09-20T11:57:21;95285.63;;;17.29;52.63
20119;BME280;10220;42.716;23.306;2022-09-20T11:59:51;95263.97;;;17.34;52.96
20119;BME280;10220;42.716;23.306;2022-09-20T12:08:00;95224.13;;;17.32;52.64
20119;BME280;10220;42.716;23.306;2022-09-20T12:10:31;95233.22;;;17.46;53.40
20119;BME280;10220;42.716;23.306;2022-09-20T12:13:19;95285.22;;;17.96;53.95
20119;BME280;10220;42.716;23.306;2022-09-20T12:16:34;95248.72;;;17.68;52.84
20119;BME280;10220;42.716;23.306;2022-09-20T12:18:59;95274.47;;;17.98;53.27
20119;BME280;10220;42.716;23.306;2022-09-20T12:21:25;95234.38;;;17.55;52.81
20119;BME280;10220;42.716;23.306;2022-09-20T12:28:50;95264.78;;;17.56;53.85
20119;BME280;10220;42.716;23.306;2022-09-20T12:34:46;95277.72;;;17.83;53.12
20119;BME280;10220;42.716;23.306;2022-09-20T12:39:21;95278.06;;;17.70;53.84
20119;BME280;10220;42.716;23.306;2022-09-20T12:41:53;95284.44;;;17.58;54.93
20119;BME280;10220;42.716;23.306;2022-09-20T12:55:39;95240.00;;;17.25;52.27
20119;BME280;10220;42.716;23.306;2022-09-20T13:00:40;95285.69;;;17.51;49.71
20119;BME280;10220;42.716;23.306;2022-09-20T13:11:36;95253.97;;;17.14;51.17
20119;BME280;10220;42.716;23.306;2022-09-20T13:16:46;95269.22;;;16.85;50.26
20119;BME280;10220;42.716;23.306;2022-09-20T13:19:22;95243.78;;;16.80;51.63
20119;BME280;10220;42.716;23.306;2022-09-20T13:21:55;95204.13;;;16.72;50.23
20119;BME280;10220;42.716;23.306;2022-09-20T13:24:24;95262.81;;;16.92;52.02
20119;BME280;10220;42.716;23.306;2022-09-20T13:26:52;95238.16;;;16.88;52.52
20119;BME280;10220;42.716;23.306;2022-09-20T13:29:42;95247.53;;;17.22;51.05
20119;BME280;10220;42.716;23.306;2022-09-20T13:34:40;95195.19;;;16.84;50.16
20119;BME280;10220;42.716;23.306;2022-09-20T13:37:16;95229.16;;;17.01;50.35
20119;BME280;10220;42.716;23.306;2022-09-20T13:39:45;95261.13;;;17.03;51.14
20119;BME280;10220;42.716;23.306;2022-09-20T13:42:14;95256.84;;;16.97;50.72
20119;BME280;10220;42.716;23.306;2022-09-20T13:44:44;95235.06;;;16.58;52.26
20119;BME280;10220;42.716;23.306;2022-09-20T13:47:27;95250.03;;;16.96;52.50
20119;BME280;10220;42.716;23.306;2022-09-20T13:52:51;95258.75;;;16.68;53.02
20119;BME280;10220;42.716;23.306;2022-09-20T13:55:31;95250.06;;;16.79;51.28
20119;BME280;10220;42.716;23.306;2022-09-20T14:00:58;95259.63;;;16.90;53.71
20119;BME280;10220;42.716;23.306;2022-09-20T14:03:26;95248.38;;;16.90;53.98
20119;BME280;10220;42.716;23.306;2022-09-20T14:06:08;95260.91;;;16.88;56.30
20119;BME280;10220;42.716;23.306;2022-09-20T14:08:43;95239.66;;;16.68;56.64
20119;BME280;10220;42.716;23.306;2022-09-20T14:13:48;95242.81;;;16.53;59.68
20119;BME280;10220;42.716;23.306;2022-09-20T14:16:15;95208.59;;;16.11;61.50
20119;BME280;10220;42.716;23.306;2022-09-20T14:18:43;95225.59;;;16.41;61.02
20119;BME280;10220;42.716;23.306;2022-09-20T14:21:12;95213.00;;;16.38;58.90
20119;BME280;10220;42.716;23.306;2022-09-20T14:23:53;95272.47;;;16.59;59.04
20119;BME280;10220;42.716;23.306;2022-09-20T14:28:44;95258.50;;;16.37;58.64
20119;BME280;10220;42.716;23.306;2022-09-20T14:31:14;95241.66;;;16.17;59.74
20119;BME280;10220;42.716;23.306;2022-09-20T14:33:43;95233.47;;;16.13;61.03
20119;BME280;10220;42.716;23.306;2022-09-20T14:36:20;95268.72;;;16.39;59.25
20119;BME280;10220;42.716;23.306;2022-09-20T14:38:49;95257.88;;;16.19;59.89
20119;BME280;10220;42.716;23.306;2022-09-20T14:41:27;95238.38;;;16.10;60.62
20119;BME280;10220;42.716;23.306;2022-09-20T14:43:58;95221.84;;;15.93;62.46
20119;BME280;10220;42.716;23.306;2022-09-20T14:46:42;95246.63;;;16.18;63.83
20119;BME280;10220;42.716;23.306;2022-09-20T14:51:52;95251.13;;;16.34;61.96
20119;BME280;10220;42.716;23.306;2022-09-20T14:54:26;95257.22;;;16.40;62.47
20119;BME280;10220;42.716;23.306;2022-09-20T14:56:53;95262.31;;;16.46;63.17
20119;BME280;10220;42.716;23.306;2022-09-20T14:59:20;95265.75;;;16.47;64.54
20119;BME280;10220;42.716;23.306;2022-09-20T15:04:28;95224.03;;;15.96;66.80
20119;BME280;10220;42.716;23.306;2022-09-20T15:06:55;95273.84;;;16.06;68.28
20119;BME280;10220;42.716;23.306;2022-09-20T15:09:21;95283.19;;;16.02;67.85
20119;BME280;10220;42.716;23.306;2022-09-20T15:11:58;95251.56;;;16.03;67.18
20119;BME280;10220;42.716;23.306;2022-09-20T15:14:23;95262.13;;;16.08;67.43
20119;BME280;10220;42.716;23.306;2022-09-20T15:16:49;95256.84;;;16.20;67.05
20119;BME280;10220;42.716;23.306;2022-09-20T15:19:14;95268.84;;;16.04;69.34
20119;BME280;10220;42.716;23.306;2022-09-20T15:21:40;95239.50;;;15.86;71.79
20119;BME280;10220;42.716;23.306;2022-09-20T15:24:05;95266.84;;;15.95;74.42
20119;BME280;10220;42.716;23.306;2022-09-20T15:26:30;95250.69;;;15.70;76.60
20119;BME280;10220;42.716;23.306;2022-09-20T15:28:56;95249.94;;;15.86;75.01
20119;BME280;10220;42.716;23.306;2022-09-20T15:31:22;95266.91;;;15.72;73.28
20119;BME280;10220;42.716;23.306;2022-09-20T15:33:48;95252.00;;;15.45;73.72
20119;BME280;10220;42.716;23.306;2022-09-20T15:36:13;95275.22;;;15.69;73.45
20119;BME280;10220;42.716;23.306;2022-09-20T15:38:38;95268.78;;;15.49;74.58
20119;BME280;10220;42.716;23.306;2022-09-20T15:41:04;95273.94;;;15.32;75.67
20119;BME280;10220;42.716;23.306;2022-09-20T15:43:30;95275.19;;;15.41;75.29
20119;BME280;10220;42.716;23.306;2022-09-20T15:46:03;95279.81;;;15.39;74.72
20119;BME280;10220;42.716;23.306;2022-09-20T15:48:40;95263.84;;;15.25;77.33
20119;BME280;10220;42.716;23.306;2022-09-20T15:51:08;95289.91;;;15.36;77.58
20119;BME280;10220;42.716;23.306;2022-09-20T15:53:37;95254.75;;;15.16;78.98
20119;BME280;10220;42.716;23.306;2022-09-20T15:56:12;95287.31;;;15.36;78.73
20119;BME280;10220;42.716;23.306;2022-09-20T15:58:46;95293.22;;;15.20;81.23
20119;BME280;10220;42.716;23.306;2022-09-20T16:01:12;95289.44;;;15.05;84.85
20119;BME280;10220;42.716;23.306;2022-09-20T16:03:38;95271.22;;;14.93;84.84
20119;BME280;10220;42.716;23.306;2022-09-20T16:06:05;95293.19;;;15.09;84.49
20119;BME280;10220;42.716;23.306;2022-09-20T16:08:35;95291.97;;;15.00;86.06
20119;BME280;10220;42.716;23.306;2022-09-20T16:11:02;95292.41;;;14.97;85.44
20119;BME280;10220;42.716;23.306;2022-09-20T16:13:28;95296.56;;;14.75;87.03
20119;BME280;10220;42.716;23.306;2022-09-20T16:16:00;95293.41;;;14.73;87.12
20119;BME280;10220;42.716;23.306;2022-09-20T16:18:27;95297.47;;;14.58;90.00
20119;BME280;10220;42.716;23.306;2022-09-20T16:21:13;95285.47;;;14.68;89.07
20119;BME280;10220;42.716;23.306;2022-09-20T16:23:41;95254.44;;;14.26;89.01
20119;BME280;10220;42.716;23.306;2022-09-20T16:26:11;95304.59;;;14.51;88.90
20119;BME280;10220;42.716;23.306;2022-09-20T16:28:41;95290.84;;;14.32;89.97
20119;BME280;10220;42.716;23.306;2022-09-20T16:33:50;95293.16;;;14.52;89.17
20119;BME280;10220;42.716;23.306;2022-09-20T16:36:15;95287.91;;;14.40;89.36
20119;BME280;10220;42.716;23.306;2022-09-20T16:38:42;95319.09;;;14.47;91.04
20119;BME280;10220;42.716;23.306;2022-09-20T16:41:08;95265.69;;;14.08;92.34
20119;BME280;10220;42.716;23.306;2022-09-20T16:43:34;95304.75;;;14.26;93.48
20119;BME280;10220;42.716;23.306;2022-09-20T16:45:59;95284.59;;;13.86;96.01
20119;BME280;10220;42.716;23.306;2022-09-20T16:48:26;95272.13;;;13.77;96.13
20119;BME280;10220;42.716;23.306;2022-09-20T16:50:56;95317.22;;;14.07;97.50
20119;BME280;10220;42.716;23.306;2022-09-20T16:53:24;95323.53;;;14.17;96.02
20119;BME280;10220;42.716;23.306;2022-09-20T16:55:50;95326.44;;;14.09;97.83
20119;BME280;10220;42.716;23.306;2022-09-20T16:58:16;95325.28;;;13.87;100.00
20119;BME280;10220;42.716;23.306;2022-09-20T17:00:41;95324.06;;;13.72;100.00
20119;BME280;10220;42.716;23.306;2022-09-20T17:03:07;95306.34;;;13.62;100.00
20119;BME280;10220;42.716;23.306;2022-09-20T17:05:32;95326.44;;;13.55;100.00
20119;BME280;10220;42.716;23.306;2022-09-20T17:07:58;95331.84;;;13.54;100.00
20119;BME280;10220;42.716;23.306;2022-09-20T17:10:24;95322.81;;;13.56;100.00
20119;BME280;10220;42.716;23.306;2022-09-20T17:12:53;95277.56;;;13.22;100.00
20119;BME280;10220;42.716;23.306;2022-09-20T17:15:22;95285.97;;;13.42;100.00
20119;BME280;10220;42.716;23.306;2022-09-20T17:17:48;95297.38;;;13.41;100.00
20119;BME280;10220;42.716;23.306;2022-09-20T17:20:14;95335.75;;;13.81;100.00
20119;BME280;10220;42.716;23.306;2022-09-20T17:22:39;95334.53;;;13.65;100.00
20119;BME280;10220;42.716;23.306;2022-09-20T17:25:05;95331.38;;;13.63;100.00
20119;BME280;10220;42.716;23.306;2022-09-20T17:27:31;95338.56;;;13.44;100.00
20119;BME280;10220;42.716;23.306;2022-09-20T17:29:56;95330.13;;;13.48;100.00
20119;BME280;10220;42.716;23.306;2022-09-20T17:32:22;95352.97;;;13.64;100.00
20119;BME280;10220;42.716;23.306;2022-09-20T17:34:48;95295.22;;;13.38;100.00
20119;BME280;10220;42.716;23.306;2022-09-20T17:37:13;95269.91;;;12.85;100.00
20119;BME280;10220;42.716;23.306;2022-09-20T17:39:39;95338.34;;;13.45;100.00
20119;BME280;10220;42.716;23.306;2022-09-20T17:42:05;95305.75;;;13.25;100.00
20119;BME280;10220;42.716;23.306;2022-09-20T17:44:31;95351.66;;;13.37;100.00
20119;BME280;10220;42.716;23.306;2022-09-20T17:47:01;95328.16;;;13.44;100.00
20119;BME280;10220;42.716;23.306;2022-09-20T17:49:26;95344.44;;;13.39;100.00
20119;BME280;10220;42.716;23.306;2022-09-20T17:51:53;95351.94;;;13.29;100.00
20119;BME280;10220;42.716;23.306;2022-09-20T17:54:20;95342.63;;;13.40;100.00
20119;BME280;10220;42.716;23.306;2022-09-20T17:56:50;95367.72;;;13.52;100.00
20119;BME280;10220;42.716;23.306;2022-09-20T17:59:18;95358.97;;;13.47;100.00
20119;BME280;10220;42.716;23.306;2022-09-20T18:01:45;95362.78;;;13.26;100.00
20119;BME280;10220;42.716;23.306;2022-09-20T18:04:12;95358.13;;;13.28;100.00
20119;BME280;10220;42.716;23.306;2022-09-20T18:06:39;95364.16;;;13.29;100.00
20119;BME280;10220;42.716;23.306;2022-09-20T18:09:09;95367.72;;;13.10;100.00
20119;BME280;10220;42.716;23.306;2022-09-20T18:11:49;95354.31;;;12.82;100.00
20119;BME280;10220;42.716;23.306;2022-09-20T18:14:16;95223.41;;;12.04;100.00
20119;BME280;10220;42.716;23.306;2022-09-20T18:16:43;95371.88;;;12.62;100.00
20119;BME280;10220;42.716;23.306;2022-09-20T18:19:09;95366.66;;;12.62;100.00